Time;durP1;ratioP1;P1;durP2;ratioP2;P2;SDS_P1;SDS_P2;PMS_P1;PMS_P2;Temp;Humidity;BMP_temperature;BMP_pressure;BME280_temperature;BME280_humidity;BME280_pressure;Samples;Min_cycle;Max_cycle;Signal;HPM_P1;HPM_P2
2022/08/28 00:01:00;;;;;;;2.90;0.70;;;16.40;68.50;;;;;;4735424;30;20059;-79
2022/08/28 00:03:28;;;;;;;4.97;1.23;;;16.40;68.50;;;;;;4723528;30;20098;-79
2022/08/28 00:05:56;;;;;;;3.78;1.17;;;16.40;68.70;;;;;;4726208;30;20071;-78
2022/08/28 00:08:23;;;;;;;3.17;0.88;;;16.40;68.80;;;;;;4720855;30;20048;-78
2022/08/28 00:10:50;;;;;;;2.63;1.20;;;16.30;68.70;;;;;;4717680;30;20122;-80
2022/08/28 00:13:20;;;;;;;3.50;1.10;;;16.30;69.40;;;;;;4726968;30;20140;-78
2022/08/28 00:15:54;;;;;;;3.15;0.82;;;16.30;69.00;;;;;;4722847;30;20061;-78
2022/08/28 00:18:21;;;;;;;3.30;0.73;;;16.30;69.10;;;;;;4740175;30;20049;-79
2022/08/28 00:20:49;;;;;;;3.33;0.88;;;16.30;69.80;;;;;;4705715;30;20640;-79
2022/08/28 00:23:16;;;;;;;5.75;1.13;;;16.20;69.20;;;;;;4721057;30;20056;-78
2022/08/28 00:25:44;;;;;;;2.60;0.63;;;16.20;69.30;;;;;;4731404;30;20117;-79
2022/08/28 00:28:12;;;;;;;2.60;0.80;;;16.20;69.50;;;;;;4731251;30;20047;-79
2022/08/28 00:30:53;;;;;;;1.95;0.60;;;16.10;69.50;;;;;;4718611;30;20056;-78
2022/08/28 00:33:34;;;;;;;4.20;0.90;;;16.10;69.60;;;;;;4726834;30;20052;-78
2022/08/28 00:36:02;;;;;;;3.20;0.93;;;16.10;69.70;;;;;;4719417;30;20063;-78
2022/08/28 00:38:29;;;;;;;4.50;1.02;;;16.10;69.80;;;;;;4718794;30;20078;-78
2022/08/28 00:41:01;;;;;;;4.25;0.80;;;16.10;69.90;;;;;;4704662;30;20132;-79
2022/08/28 00:43:42;;;;;;;1.52;0.70;;;16.10;70.00;;;;;;4722537;30;20056;-79
2022/08/28 00:46:14;;;;;;;4.90;0.90;;;16.10;70.10;;;;;;4724785;30;20384;-78
2022/08/28 00:48:42;;;;;;;3.42;0.80;;;16.00;70.20;;;;;;4718414;30;20391;-79
2022/08/28 00:53:57;;;;;;;3.95;0.98;;;16.00;70.30;;;;;;4718496;30;20152;-78
2022/08/28 00:56:27;;;;;;;2.35;0.88;;;15.90;70.40;;;;;;4718698;30;20091;-78
2022/08/28 00:58:57;;;;;;;3.42;0.90;;;15.90;70.40;;;;;;4718440;30;20056;-78
2022/08/28 01:01:24;;;;;;;2.75;0.98;;;15.90;70.60;;;;;;4718551;30;20569;-79
2022/08/28 01:03:51;;;;;;;2.15;0.65;;;15.90;70.70;;;;;;4718705;30;20049;-80
2022/08/28 01:06:21;;;;;;;4.68;0.90;;;15.90;70.70;;;;;;4718468;30;20060;-81
2022/08/28 01:08:49;;;;;;;4.10;0.88;;;15.90;70.80;;;;;;4704802;30;20148;-81
2022/08/28 01:11:18;;;;;;;3.70;1.00;;;15.80;71.50;;;;;;4717627;30;20056;-81
2022/08/28 01:13:47;;;;;;;2.00;0.52;;;15.80;71.00;;;;;;4704240;30;20143;-81
2022/08/28 01:16:16;;;;;;;4.50;0.82;;;15.80;71.10;;;;;;4704366;30;20049;-81
2022/08/28 01:18:48;;;;;;;3.38;0.63;;;15.80;71.20;;;;;;4704511;30;20056;-78
2022/08/28 01:21:29;;;;;;;3.63;0.65;;;15.70;71.20;;;;;;4721013;30;20134;-78
2022/08/28 01:24:06;;;;;;;2.17;0.70;;;15.70;71.30;;;;;;4724085;30;20122;-79
2022/08/28 01:26:33;;;;;;;3.72;0.93;;;15.70;71.40;;;;;;4732890;30;20047;-79
2022/08/28 01:29:00;;;;;;;2.20;0.70;;;15.60;71.50;;;;;;4689807;30;20139;-78
2022/08/28 01:31:30;;;;;;;2.97;0.70;;;15.60;71.60;;;;;;4704235;30;20102;-79
2022/08/28 01:33:58;;;;;;;3.78;0.80;;;15.60;71.70;;;;;;4718621;30;20095;-78
2022/08/28 01:36:25;;;;;;;2.88;0.85;;;15.70;71.70;;;;;;4735341;30;20052;-78
2022/08/28 01:38:59;;;;;;;2.30;1.08;;;15.60;71.70;;;;;;4718374;30;20057;-78
2022/08/28 01:41:28;;;;;;;2.65;0.90;;;15.60;71.70;;;;;;4713365;30;20072;-78
2022/08/28 01:43:55;;;;;;;2.33;0.68;;;15.60;71.80;;;;;;4707668;30;20143;-78
2022/08/28 01:46:22;;;;;;;3.80;0.60;;;15.60;71.90;;;;;;4707190;30;20056;-79
2022/08/28 01:48:49;;;;;;;3.60;0.95;;;15.50;71.90;;;;;;4694836;30;20040;-81
2022/08/28 01:51:16;;;;;;;2.40;0.57;;;15.50;72.00;;;;;;4707371;30;20078;-80
2022/08/28 01:53:49;;;;;;;4.22;0.70;;;15.50;72.00;;;;;;4721646;30;20053;-81
2022/08/28 01:56:20;;;;;;;3.67;1.00;;;15.50;72.10;;;;;;4707246;30;20414;-81
2022/08/28 01:58:49;;;;;;;3.13;0.70;;;15.50;72.20;;;;;;4716348;30;20056;-79
2022/08/28 02:01:19;;;;;;;2.83;0.70;;;15.50;72.40;;;;;;4709802;30;20048;-81
2022/08/28 02:03:48;;;;;;;6.35;0.90;;;15.40;72.50;;;;;;4718098;30;20108;-78
2022/08/28 02:06:15;;;;;;;2.67;1.00;;;15.40;72.70;;;;;;4725835;30;20072;-79
2022/08/28 02:08:42;;;;;;;2.85;0.73;;;15.30;72.80;;;;;;4742564;30;20047;-78
2022/08/28 02:11:11;;;;;;;2.35;0.70;;;15.30;72.90;;;;;;4721139;30;20056;-78
2022/08/28 02:13:39;;;;;;;1.70;0.63;;;15.30;73.00;;;;;;4706821;30;20061;-78
2022/08/28 02:16:08;;;;;;;3.00;0.70;;;15.30;73.00;;;;;;4736736;30;20081;-79
2022/08/28 02:18:36;;;;;;;3.25;0.60;;;15.30;73.00;;;;;;4721751;30;20075;-79
2022/08/28 02:21:05;;;;;;;2.53;0.47;;;15.30;73.20;;;;;;4728682;30;20072;-79
2022/08/28 02:23:32;;;;;;;2.33;0.52;;;15.20;73.20;;;;;;4737382;30;20056;-79
2022/08/28 02:25:59;;;;;;;1.75;0.60;;;15.20;73.30;;;;;;4721598;30;20051;-78
2022/08/28 02:28:26;;;;;;;2.17;0.60;;;15.20;73.30;;;;;;4723279;30;20126;-78
2022/08/28 02:30:54;;;;;;;2.30;0.50;;;15.10;73.40;;;;;;4708750;30;20527;-78
2022/08/28 02:33:21;;;;;;;1.00;0.50;;;15.10;73.40;;;;;;4716898;30;20096;-78
2022/08/28 02:35:48;;;;;;;1.52;0.40;;;15.10;73.50;;;;;;4720897;30;20488;-77
2022/08/28 02:38:16;;;;;;;1.95;0.50;;;15.10;73.60;;;;;;4736286;30;20057;-78
2022/08/28 02:40:46;;;;;;;1.80;0.57;;;15.10;73.70;;;;;;4723370;30;20056;-78
2022/08/28 02:43:13;;;;;;;3.65;0.60;;;15.10;73.80;;;;;;4720712;30;20106;-81
2022/08/28 02:45:40;;;;;;;2.33;0.60;;;15.10;73.80;;;;;;4718476;30;20049;-79
2022/08/28 02:48:08;;;;;;;2.63;0.70;;;15.10;73.80;;;;;;4721567;30;20498;-80
2022/08/28 02:50:45;;;;;;;2.10;0.68;;;15.10;73.90;;;;;;4722507;30;20048;-80
2022/08/28 02:53:12;;;;;;;3.63;0.60;;;15.10;74.60;;;;;;4726362;30;20124;-81
2022/08/28 02:55:39;;;;;;;3.53;0.50;;;15.00;74.00;;;;;;4714114;30;20053;-80
2022/08/28 02:58:08;;;;;;;3.38;0.68;;;15.00;74.10;;;;;;4742599;30;20123;-80
2022/08/28 03:00:35;;;;;;;2.97;0.60;;;15.00;74.20;;;;;;4706450;30;20561;-80
2022/08/28 03:03:03;;;;;;;2.05;0.70;;;15.00;74.20;;;;;;4732928;30;20063;-79
2022/08/28 03:05:30;;;;;;;2.42;0.60;;;14.90;74.30;;;;;;4724959;30;20060;-81
2022/08/28 03:07:57;;;;;;;2.63;0.70;;;15.00;74.30;;;;;;4691443;30;20041;-81
2022/08/28 03:10:24;;;;;;;2.10;0.50;;;14.90;74.40;;;;;;4736980;30;20114;-80
2022/08/28 03:12:51;;;;;;;3.83;0.52;;;14.90;74.40;;;;;;4698482;30;20044;-81
2022/08/28 03:15:20;;;;;;;3.95;0.57;;;14.90;74.50;;;;;;4727960;30;20069;-81
2022/08/28 03:17:47;;;;;;;1.13;0.50;;;14.90;75.10;;;;;;4722228;30;20087;-81
2022/08/28 03:20:16;;;;;;;3.83;0.75;;;14.90;74.60;;;;;;4717298;30;20048;-80
2022/08/28 03:25:28;;;;;;;2.17;0.60;;;14.80;75.30;;;;;;4724637;30;20055;-80
2022/08/28 03:27:55;;;;;;;2.30;0.70;;;14.80;74.80;;;;;;4720759;30;20094;-81
2022/08/28 03:30:23;;;;;;;2.03;0.45;;;14.80;74.80;;;;;;4717876;30;20049;-80
2022/08/28 03:32:50;;;;;;;3.92;0.52;;;14.80;75.50;;;;;;4706002;30;20056;-82
2022/08/28 03:35:19;;;;;;;3.67;0.60;;;14.80;74.90;;;;;;4732766;30;20510;-79
2022/08/28 03:37:46;;;;;;;3.25;0.60;;;14.80;75.00;;;;;;4720394;30;20044;-78
2022/08/28 03:40:15;;;;;;;2.17;0.68;;;14.70;75.10;;;;;;4719975;30;20080;-78
2022/08/28 03:42:43;;;;;;;3.22;0.35;;;14.70;75.20;;;;;;4727762;30;20053;-78
2022/08/28 03:45:20;;;;;;;2.50;0.52;;;14.80;75.20;;;;;;4721286;30;20049;-79
2022/08/28 03:47:47;;;;;;;3.08;0.70;;;14.80;75.20;;;;;;4707149;30;20049;-79
2022/08/28 03:50:20;;;;;;;3.17;0.70;;;14.70;75.20;;;;;;4725238;30;20191;-79
2022/08/28 03:52:47;;;;;;;1.95;0.50;;;14.70;75.40;;;;;;4719312;30;20507;-79
2022/08/28 03:55:15;;;;;;;3.03;0.50;;;14.70;75.40;;;;;;4693810;30;20091;-78
2022/08/28 03:57:42;;;;;;;2.22;0.60;;;14.70;75.40;;;;;;4738624;30;20061;-78
2022/08/28 04:00:12;;;;;;;2.15;0.55;;;14.70;75.50;;;;;;4705760;30;20131;-78
2022/08/28 04:02:41;;;;;;;2.38;0.70;;;14.70;75.60;;;;;;4734702;30;20053;-78
2022/08/28 04:05:09;;;;;;;3.58;0.60;;;14.70;75.60;;;;;;4718647;30;20456;-78
2022/08/28 04:07:37;;;;;;;1.77;0.50;;;14.70;75.70;;;;;;4688193;30;20052;-78
2022/08/28 04:10:05;;;;;;;5.13;0.60;;;14.70;75.70;;;;;;4696333;30;20589;-78
2022/08/28 04:12:32;;;;;;;1.85;0.60;;;14.70;75.70;;;;;;4734114;30;20057;-78
2022/08/28 04:15:03;;;;;;;1.83;0.50;;;14.70;75.80;;;;;;4704886;30;20049;-78
2022/08/28 04:17:32;;;;;;;3.25;0.60;;;14.70;75.80;;;;;;4725497;30;20056;-78
2022/08/28 04:20:02;;;;;;;1.40;0.50;;;14.60;75.90;;;;;;4734618;30;20048;-78
2022/08/28 04:22:29;;;;;;;2.75;0.55;;;14.70;76.00;;;;;;4729388;30;20060;-78
2022/08/28 04:24:56;;;;;;;1.95;0.68;;;14.60;76.00;;;;;;4705311;30;20102;-78
2022/08/28 04:27:23;;;;;;;3.13;0.77;;;14.60;76.10;;;;;;4701967;30;20119;-78
2022/08/28 04:29:50;;;;;;;2.42;0.77;;;14.60;76.10;;;;;;4690643;30;20112;-78
2022/08/28 04:32:22;;;;;;;2.58;0.50;;;14.60;76.70;;;;;;4690367;30;20064;-79
2022/08/28 04:34:49;;;;;;;1.80;0.50;;;14.60;76.20;;;;;;4704775;30;20063;-79
2022/08/28 04:37:17;;;;;;;4.22;0.77;;;14.60;76.20;;;;;;4704606;30;20072;-79
2022/08/28 04:39:44;;;;;;;4.18;0.80;;;14.60;76.20;;;;;;4718979;30;20502;-78
2022/08/28 04:42:15;;;;;;;4.90;0.90;;;14.60;76.20;;;;;;4720150;30;20518;-79
2022/08/28 04:44:44;;;;;;;2.65;0.80;;;14.60;76.20;;;;;;4714720;30;20048;-78
2022/08/28 04:47:11;;;;;;;4.15;0.60;;;14.60;76.30;;;;;;4708882;30;20075;-79
2022/08/28 04:49:39;;;;;;;2.10;0.50;;;14.60;76.30;;;;;;4718745;30;20060;-79
2022/08/28 04:52:06;;;;;;;2.90;0.57;;;14.60;76.40;;;;;;4704099;30;20136;-79
2022/08/28 04:54:33;;;;;;;1.35;0.40;;;14.60;76.40;;;;;;4718485;30;20096;-79
2022/08/28 04:57:01;;;;;;;1.48;0.50;;;14.60;76.30;;;;;;4732799;30;20071;-80
2022/08/28 04:59:32;;;;;;;2.30;0.43;;;14.60;76.40;;;;;;4718752;30;20139;-79
2022/08/28 05:01:59;;;;;;;1.83;0.60;;;14.60;77.00;;;;;;4704773;30;20793;-79
2022/08/28 05:04:27;;;;;;;4.78;0.80;;;14.60;76.50;;;;;;4705476;30;20055;-79
2022/08/28 05:06:54;;;;;;;1.70;0.50;;;14.60;76.50;;;;;;4734447;30;20080;-78
2022/08/28 05:09:21;;;;;;;1.60;0.50;;;14.60;76.50;;;;;;4718089;30;20044;-78
2022/08/28 05:11:48;;;;;;;3.35;0.50;;;14.60;76.50;;;;;;4703960;30;20057;-78
2022/08/28 05:14:15;;;;;;;3.40;0.80;;;14.60;76.50;;;;;;4679053;30;20060;-79
2022/08/28 05:16:47;;;;;;;4.35;0.50;;;14.60;76.60;;;;;;4690323;30;20045;-79
2022/08/28 05:19:16;;;;;;;3.67;0.60;;;14.60;76.60;;;;;;4717228;30;20143;-79
2022/08/28 05:21:44;;;;;;;1.98;0.60;;;14.60;76.60;;;;;;4739755;30;20079;-79
2022/08/28 05:24:12;;;;;;;3.13;0.60;;;14.70;76.60;;;;;;4693544;30;20060;-78
2022/08/28 05:26:40;;;;;;;3.40;0.63;;;14.70;76.60;;;;;;4739391;30;20060;-79
2022/08/28 05:29:08;;;;;;;2.92;0.50;;;14.70;76.50;;;;;;4740910;30;20068;-79
2022/08/28 05:31:40;;;;;;;3.40;0.70;;;14.80;76.50;;;;;;4711395;30;20574;-79
2022/08/28 05:34:09;;;;;;;3.72;0.50;;;14.80;76.40;;;;;;4713394;30;20080;-79
2022/08/28 05:36:37;;;;;;;3.15;0.50;;;14.80;76.30;;;;;;4742249;30;20094;-78
2022/08/28 05:39:07;;;;;;;2.30;0.60;;;14.90;76.30;;;;;;4743080;30;20436;-79
2022/08/28 05:41:36;;;;;;;1.90;0.30;;;14.90;76.20;;;;;;4739015;30;20411;-78
2022/08/28 05:44:06;;;;;;;2.17;0.52;;;15.00;76.20;;;;;;4724189;30;20048;-80
2022/08/28 05:46:36;;;;;;;2.97;0.43;;;15.00;76.10;;;;;;4716219;30;20064;-78
2022/08/28 05:49:08;;;;;;;3.25;0.43;;;15.10;76.10;;;;;;4731343;30;20045;-79
2022/08/28 05:51:39;;;;;;;1.63;0.35;;;15.10;75.90;;;;;;4734598;30;20137;-80
2022/08/28 05:54:06;;;;;;;3.65;0.60;;;15.20;75.90;;;;;;4718839;30;20495;-79
2022/08/28 05:56:37;;;;;;;3.90;0.60;;;15.20;75.80;;;;;;4711431;30;20048;-80
2022/08/28 05:59:05;;;;;;;2.00;0.50;;;15.20;75.70;;;;;;4736764;30;20409;-80
2022/08/28 06:01:37;;;;;;;3.22;0.32;;;15.30;75.70;;;;;;4721077;30;20052;-80
2022/08/28 06:04:11;;;;;;;5.35;0.77;;;15.30;75.60;;;;;;4736669;30;20461;-80
2022/08/28 06:06:40;;;;;;;4.47;0.70;;;15.40;75.50;;;;;;4735484;30;20060;-80
2022/08/28 06:09:14;;;;;;;1.73;0.82;;;15.50;75.40;;;;;;4719896;30;20453;-79
2022/08/28 06:11:43;;;;;;;2.05;0.50;;;15.60;75.30;;;;;;4728203;30;20044;-80
2022/08/28 06:14:14;;;;;;;1.98;0.45;;;15.60;75.80;;;;;;4743001;30;20108;-80
2022/08/28 06:16:46;;;;;;;4.70;0.50;;;15.70;75.00;;;;;;4721812;30;20069;-80
2022/08/28 06:19:15;;;;;;;2.83;0.73;;;15.80;74.80;;;;;;4742020;30;20487;-79
2022/08/28 06:21:47;;;;;;;1.98;0.40;;;15.90;74.70;;;;;;4707077;30;20041;-79
2022/08/28 06:24:14;;;;;;;1.02;0.30;;;16.00;74.60;;;;;;4742772;30;20052;-80
2022/08/28 06:26:41;;;;;;;1.55;0.40;;;16.10;74.40;;;;;;4691852;30;20048;-80
2022/08/28 06:29:11;;;;;;;1.63;0.40;;;16.20;74.20;;;;;;4696909;30;20149;-79
2022/08/28 06:31:39;;;;;;;2.22;0.40;;;16.30;74.10;;;;;;4719931;30;20490;-79
2022/08/28 06:34:08;;;;;;;2.55;0.68;;;16.40;73.90;;;;;;4708498;30;20107;-79
2022/08/28 06:36:40;;;;;;;2.08;0.40;;;16.50;73.80;;;;;;4705780;30;20058;-79
2022/08/28 06:39:08;;;;;;;;;;;16.60;73.70;;;;;;4720741;30;20060;-80
2022/08/28 06:41:39;;;;;;;3.67;0.50;;;16.70;73.50;;;;;;4720483;30;19973;-80
2022/08/28 06:44:08;;;;;;;1.90;0.45;;;16.80;73.50;;;;;;4725826;30;20514;-78
2022/08/28 06:46:35;;;;;;;1.67;0.47;;;16.90;73.30;;;;;;4735170;30;20045;-80
2022/08/28 06:49:06;;;;;;;2.28;0.52;;;17.00;73.10;;;;;;4720561;30;20057;-78
2022/08/28 06:51:34;;;;;;;1.77;0.40;;;17.10;73.00;;;;;;4720584;30;20049;-79
2022/08/28 06:54:02;;;;;;;3.40;0.40;;;17.20;72.80;;;;;;4705844;30;20505;-78
2022/08/28 06:56:30;;;;;;;1.75;0.40;;;17.20;72.60;;;;;;4689527;30;20061;-78
2022/08/28 06:58:58;;;;;;;2.00;0.50;;;17.30;72.50;;;;;;4723985;30;20043;-78
2022/08/28 07:01:31;;;;;;;1.80;0.60;;;17.40;72.40;;;;;;4707824;30;20057;-77
2022/08/28 07:04:11;;;;;;;1.13;0.40;;;17.50;72.30;;;;;;4725936;30;20049;-80
2022/08/28 07:06:40;;;;;;;2.97;0.50;;;17.50;72.20;;;;;;4705877;30;20048;-80
2022/08/28 07:09:10;;;;;;;3.08;0.50;;;17.60;72.00;;;;;;4705657;30;20139;-80
2022/08/28 07:11:38;;;;;;;2.35;0.63;;;17.70;71.80;;;;;;4734406;30;20079;-79
2022/08/28 07:14:06;;;;;;;3.33;0.43;;;17.80;71.70;;;;;;4719768;30;20044;-79
2022/08/28 07:16:37;;;;;;;3.85;0.50;;;17.80;71.50;;;;;;4721568;30;20457;-78
2022/08/28 07:19:06;;;;;;;4.47;0.50;;;17.90;71.40;;;;;;4722349;30;20498;-79
2022/08/28 07:21:35;;;;;;;2.40;0.35;;;18.00;71.30;;;;;;4719494;30;20048;-78
2022/08/28 07:24:06;;;;;;;3.00;0.30;;;18.00;71.10;;;;;;4723653;30;20148;-80
2022/08/28 07:26:35;;;;;;;3.05;0.30;;;18.10;71.00;;;;;;4720155;30;20064;-79
2022/08/28 07:29:06;;;;;;;1.65;0.35;;;18.20;70.80;;;;;;4725142;30;20119;-80
2022/08/28 07:31:42;;;;;;;2.30;0.52;;;18.30;70.70;;;;;;4733632;30;20398;-80
2022/08/28 07:34:14;;;;;;;2.67;0.30;;;18.40;70.40;;;;;;4719718;30;20118;-79
2022/08/28 07:36:42;;;;;;;2.28;0.50;;;18.50;70.20;;;;;;4719279;30;20051;-80
2022/08/28 07:39:12;;;;;;;0.93;0.30;;;18.50;69.80;;;;;;4704961;30;20056;-81
2022/08/28 07:41:41;;;;;;;2.75;0.50;;;18.60;69.60;;;;;;4735779;30;20441;-81
2022/08/28 07:47:02;;;;;;;2.47;0.40;;;18.70;69.10;;;;;;4721306;30;20155;-81
2022/08/28 07:49:32;;;;;;;3.75;0.40;;;18.70;69.00;;;;;;4725513;30;20056;-81
2022/08/28 07:52:00;;;;;;;1.73;0.52;;;18.80;68.80;;;;;;4722646;30;20049;-80
2022/08/28 07:54:27;;;;;;;2.25;0.30;;;18.90;68.50;;;;;;4719339;30;20507;-79
2022/08/28 07:56:54;;;;;;;3.88;0.40;;;19.00;68.20;;;;;;4719351;30;20053;-79
2022/08/28 07:59:21;;;;;;;2.08;0.40;;;19.00;67.90;;;;;;4735023;30;20076;-79
2022/08/28 08:01:50;;;;;;;3.42;0.50;;;19.10;67.60;;;;;;4734329;30;20502;-79
2022/08/28 08:04:20;;;;;;;2.22;0.50;;;19.20;67.40;;;;;;4718991;30;20044;-78
2022/08/28 08:06:48;;;;;;;1.48;0.38;;;19.20;67.10;;;;;;4739080;30;20082;-79
2022/08/28 08:09:18;;;;;;;2.05;0.50;;;19.30;66.70;;;;;;4743760;30;20047;-78
2022/08/28 08:11:48;;;;;;;1.65;0.45;;;19.30;66.60;;;;;;4709000;30;20414;-81
2022/08/28 08:14:16;;;;;;;0.95;0.30;;;19.50;66.50;;;;;;4724541;30;20044;-80
2022/08/28 08:16:46;;;;;;;1.75;0.40;;;19.50;65.90;;;;;;4735045;30;20044;-80
2022/08/28 08:19:15;;;;;;;2.97;0.40;;;19.60;65.60;;;;;;4738920;30;20040;-80
2022/08/28 08:21:47;;;;;;;1.83;0.40;;;19.60;65.10;;;;;;4704607;30;20045;-80
2022/08/28 08:24:24;;;;;;;1.85;0.35;;;19.70;64.80;;;;;;4705240;30;20087;-80
2022/08/28 08:26:54;;;;;;;2.28;0.50;;;19.70;64.40;;;;;;4704412;30;20411;-81
2022/08/28 08:29:35;;;;;;;1.67;0.50;;;19.80;64.30;;;;;;4705504;30;20384;-79
2022/08/28 08:32:08;;;;;;;1.73;0.30;;;19.90;63.90;;;;;;4718513;30;20126;-78
2022/08/28 08:34:39;;;;;;;2.25;0.40;;;19.90;64.00;;;;;;4718739;30;20473;-78
2022/08/28 08:37:07;;;;;;;3.45;0.35;;;20.00;63.90;;;;;;4725637;30;20511;-79
2022/08/28 08:39:35;;;;;;;1.77;0.30;;;20.00;63.50;;;;;;4718883;30;20079;-77
2022/08/28 08:42:07;;;;;;;1.67;0.30;;;20.10;63.30;;;;;;4721539;30;20060;-79
2022/08/28 08:44:42;;;;;;;1.58;0.30;;;20.20;62.90;;;;;;4725209;30;20490;-78
2022/08/28 08:47:23;;;;;;;1.35;0.40;;;20.30;62.70;;;;;;4745462;30;20079;-78
2022/08/28 08:50:24;;;;;;;1.20;0.30;;;20.40;62.30;;;;;;4705190;30;20098;-78
2022/08/28 08:53:09;;;;;;;2.95;0.50;;;20.40;62.00;;;;;;4711982;30;20056;-78
2022/08/28 08:55:51;;;;;;;3.03;0.60;;;20.30;61.60;;;;;;4734041;30;20083;-79
2022/08/28 08:58:31;;;;;;;2.58;0.70;;;20.30;61.60;;;;;;4718990;30;20060;-83
2022/08/28 09:01:15;;;;;;;1.20;0.40;;;20.20;61.20;;;;;;4713501;30;20072;-79
2022/08/28 09:04:18;;;;;;;1.98;0.40;;;20.20;61.10;;;;;;4727513;30;20348;-78
2022/08/28 09:06:50;;;;;;;1.48;0.40;;;20.20;61.20;;;;;;4718745;30;20056;-78
2022/08/28 09:09:29;;;;;;;2.05;0.43;;;20.10;61.40;;;;;;4741501;30;20131;-78
2022/08/28 09:12:11;;;;;;;3.22;0.40;;;20.20;61.40;;;;;;4704242;30;20049;-82
2022/08/28 09:14:47;;;;;;;3.15;0.32;;;20.40;61.00;;;;;;4734631;30;20037;-80
2022/08/28 09:17:18;;;;;;;2.53;0.35;;;20.50;60.80;;;;;;4720930;30;20103;-79
2022/08/28 09:19:45;;;;;;;1.80;0.33;;;20.70;60.50;;;;;;4706137;30;20095;-77
2022/08/28 09:22:13;;;;;;;1.95;0.30;;;20.80;60.10;;;;;;4725962;30;20049;-77
2022/08/28 09:24:41;;;;;;;1.50;0.30;;;20.90;59.80;;;;;;4728029;30;20056;-78
2022/08/28 09:27:22;;;;;;;1.67;0.35;;;21.00;59.80;;;;;;4704233;30;20128;-78
2022/08/28 09:30:00;;;;;;;1.92;0.40;;;21.10;59.40;;;;;;4717764;30;20048;-79
2022/08/28 09:32:46;;;;;;;1.48;0.30;;;21.10;59.30;;;;;;4706239;30;20077;-78
2022/08/28 09:35:29;;;;;;;1.23;0.40;;;21.00;58.90;;;;;;4718206;30;20045;-79
2022/08/28 09:38:18;;;;;;;2.87;0.37;;;20.90;58.90;;;;;;4707663;30;20064;-77
2022/08/28 09:43:33;;;;;;;1.52;0.30;;;20.90;59.20;;;;;;4714612;30;20113;-78
2022/08/28 09:46:19;;;;;;;2.55;0.30;;;21.10;58.70;;;;;;4723596;30;20045;-77
2022/08/28 09:48:51;;;;;;;2.65;0.40;;;21.30;58.40;;;;;;4733931;30;20048;-78
2022/08/28 09:51:21;;;;;;;2.08;0.70;;;21.30;58.20;;;;;;4737362;30;20525;-79
2022/08/28 09:53:51;;;;;;;2.92;0.50;;;21.20;58.20;;;;;;4722338;30;20522;-79
2022/08/28 09:56:23;;;;;;;2.13;0.50;;;21.10;58.20;;;;;;4733320;30;20465;-80
2022/08/28 09:58:53;;;;;;;4.72;0.60;;;21.00;57.50;;;;;;4723926;30;20084;-81
2022/08/28 10:01:29;;;;;;;1.00;0.20;;;21.10;57.70;;;;;;4720831;30;20101;-80
2022/08/28 10:04:05;;;;;;;1.20;0.28;;;21.20;57.70;;;;;;4726856;30;20519;-80
2022/08/28 10:06:37;;;;;;;2.75;0.40;;;21.20;57.70;;;;;;4735640;30;20498;-80
2022/08/28 10:09:20;;;;;;;1.67;0.38;;;21.10;57.70;;;;;;4707947;30;20052;-79
2022/08/28 10:11:58;;;;;;;1.20;0.20;;;21.30;57.60;;;;;;4721536;30;20407;-80
2022/08/28 10:14:44;;;;;;;0.90;0.28;;;21.60;56.90;;;;;;4739355;30;20052;-80
2022/08/28 10:17:30;;;;;;;1.33;0.40;;;22.00;55.80;;;;;;4740525;30;20455;-79
2022/08/28 10:20:06;;;;;;;1.42;0.40;;;22.20;55.50;;;;;;4713891;30;20123;-80
2022/08/28 10:22:50;;;;;;;1.27;0.40;;;22.40;55.10;;;;;;4722799;30;20056;-80
2022/08/28 10:25:49;;;;;;;1.50;0.40;;;22.70;54.20;;;;;;4721421;30;20495;-80
2022/08/28 10:28:59;;;;;;;2.35;0.30;;;22.70;54.10;;;;;;4692551;30;20048;-80
2022/08/28 10:31:37;;;;;;;1.50;0.20;;;22.80;53.80;;;;;;4735002;30;20060;-80
2022/08/28 10:34:36;;;;;;;1.88;0.40;;;23.20;53.40;;;;;;4718019;30;20117;-80
2022/08/28 10:37:37;;;;;;;2.10;0.20;;;23.50;53.00;;;;;;4741638;30;20067;-80
2022/08/28 10:40:33;;;;;;;1.40;0.50;;;23.70;52.90;;;;;;4712199;30;20064;-79
2022/08/28 10:43:07;;;;;;;1.75;0.30;;;23.80;52.10;;;;;;4723473;30;20169;-79
2022/08/28 10:45:34;;;;;;;0.93;0.22;;;23.80;52.20;;;;;;4743957;30;20049;-79
2022/08/28 10:48:25;;;;;;;0.95;0.20;;;23.70;52.40;;;;;;4704649;30;20049;-79
2022/08/28 10:50:59;;;;;;;1.13;0.30;;;23.60;52.50;;;;;;4724620;30;20494;-80
2022/08/28 10:53:39;;;;;;;0.65;0.20;;;23.90;52.10;;;;;;4734044;30;20049;-79
2022/08/28 10:56:14;;;;;;;1.15;0.30;;;24.60;51.10;;;;;;4743280;30;20057;-80
2022/08/28 10:58:41;;;;;;;2.13;0.40;;;24.80;50.40;;;;;;4732215;30;20056;-80
2022/08/28 11:01:12;;;;;;;0.93;0.30;;;24.60;50.50;;;;;;4720437;30;20053;-81
2022/08/28 11:03:48;;;;;;;0.88;0.20;;;24.30;50.90;;;;;;4726970;30;20044;-79
2022/08/28 11:06:46;;;;;;;2.05;0.30;;;24.00;51.50;;;;;;4715513;30;20053;-80
2022/08/28 11:09:26;;;;;;;1.40;0.52;;;23.80;51.70;;;;;;4734295;30;20044;-80
2022/08/28 11:12:08;;;;;;;0.90;0.20;;;23.50;52.20;;;;;;4726200;30;20045;-80
2022/08/28 11:14:41;;;;;;;1.55;0.20;;;23.40;52.50;;;;;;4737106;30;20048;-80
2022/08/28 11:17:20;;;;;;;1.13;0.20;;;23.30;52.90;;;;;;4742540;30;20052;-80
2022/08/28 11:20:12;;;;;;;0.55;0.15;;;23.30;53.00;;;;;;4720395;30;20106;-81
2022/08/28 11:22:42;;;;;;;3.40;0.30;;;23.20;52.90;;;;;;4725591;30;20084;-80
2022/08/28 11:25:10;;;;;;;0.57;0.20;;;23.20;53.00;;;;;;4719995;30;20048;-79
2022/08/28 11:27:38;;;;;;;0.93;0.30;;;23.50;52.80;;;;;;4735869;30;20053;-80
2022/08/28 11:30:14;;;;;;;1.92;0.30;;;24.50;51.80;;;;;;4719732;30;20514;-78
2022/08/28 11:32:50;;;;;;;1.02;0.20;;;24.70;49.70;;;;;;4717329;30;20079;-79
2022/08/28 11:35:20;;;;;;;1.25;0.30;;;24.30;50.40;;;;;;4735831;30;20049;-78
2022/08/28 11:37:49;;;;;;;1.55;0.32;;;24.10;50.80;;;;;;4720214;30;20057;-78
2022/08/28 11:40:18;;;;;;;1.10;0.20;;;23.90;51.00;;;;;;4720074;30;20462;-78
2022/08/28 11:42:49;;;;;;;0.98;0.20;;;24.00;51.00;;;;;;4735471;30;20044;-79
2022/08/28 11:45:42;;;;;;;0.40;0.20;;;24.20;50.60;;;;;;4709359;30;20410;-79
2022/08/28 11:48:32;;;;;;;1.33;0.20;;;24.20;50.50;;;;;;4689081;30;20064;-79
2022/08/28 11:51:13;;;;;;;0.55;0.20;;;23.80;50.80;;;;;;4725175;30;20406;-80
2022/08/28 11:53:52;;;;;;;0.95;0.20;;;23.60;51.30;;;;;;4734814;30;20049;-80
2022/08/28 11:56:55;;;;;;;0.70;0.20;;;24.70;49.90;;;;;;4726830;30;20053;-79
2022/08/28 11:59:43;;;;;;;0.90;0.20;;;25.30;48.20;;;;;;4713656;30;20052;-79
2022/08/28 12:02:32;;;;;;;1.23;0.30;;;24.70;48.50;;;;;;4737520;30;20106;-79
2022/08/28 12:05:00;;;;;;;0.50;0.20;;;24.10;49.40;;;;;;4726488;30;20060;-80
2022/08/28 12:07:40;;;;;;;1.63;0.38;;;23.70;50.20;;;;;;4719794;30;20052;-83
2022/08/28 12:10:34;;;;;;;1.15;0.20;;;23.50;50.50;;;;;;4719681;30;20049;-84
2022/08/28 12:13:08;;;;;;;1.75;0.30;;;23.40;50.80;;;;;;4721323;30;20116;-82
2022/08/28 12:15:38;;;;;;;0.80;0.20;;;23.20;50.90;;;;;;4719380;30;20084;-82
2022/08/28 12:18:11;;;;;;;1.05;0.30;;;23.20;51.00;;;;;;4720667;30;20553;-80
2022/08/28 12:20:39;;;;;;;1.25;0.30;;;23.30;50.90;;;;;;4719672;30;20053;-80
2022/08/28 12:23:35;;;;;;;0.60;0.20;;;23.50;50.70;;;;;;4708731;30;20645;-79
2022/08/28 12:26:20;;;;;;;0.88;0.20;;;23.80;49.80;;;;;;4703484;30;20594;-78
2022/08/28 12:29:19;;;;;;;1.10;0.30;;;23.80;49.80;;;;;;4718710;30;20114;-78
2022/08/28 12:32:25;;;;;;;1.38;0.30;;;23.70;49.60;;;;;;4709330;30;20067;-79
2022/08/28 12:34:58;;;;;;;0.70;0.30;;;23.50;49.80;;;;;;4733694;30;20052;-78
2022/08/28 12:37:37;;;;;;;2.05;0.20;;;23.40;50.10;;;;;;4734458;30;20084;-79
2022/08/28 12:40:52;;;;;;;0.73;0.20;;;23.60;50.00;;;;;;4718807;30;20485;-78
2022/08/28 12:43:34;;;;;;;0.60;0.30;;;23.70;49.70;;;;;;4717527;30;20570;-78
2022/08/28 12:46:27;;;;;;;2.13;0.30;;;23.70;49.80;;;;;;4734542;30;20056;-78
2022/08/28 12:49:00;;;;;;;0.90;0.28;;;23.60;49.10;;;;;;4718782;30;20098;-79
2022/08/28 12:51:33;;;;;;;1.17;0.30;;;23.60;49.10;;;;;;4718069;30;20130;-79
2022/08/28 12:54:07;;;;;;;1.05;0.30;;;23.50;48.80;;;;;;4704132;30;20067;-79
2022/08/28 12:56:38;;;;;;;0.95;0.20;;;23.50;48.80;;;;;;4736733;30;20049;-79
2022/08/28 12:59:24;;;;;;;0.55;0.10;;;23.40;48.90;;;;;;4707299;30;20045;-80
2022/08/28 13:01:59;;;;;;;1.00;0.30;;;23.40;49.10;;;;;;4716138;30;20403;-79
2022/08/28 13:04:32;;;;;;;0.90;0.20;;;23.30;49.20;;;;;;4699798;30;20421;-81
2022/08/28 13:07:09;;;;;;;1.42;0.40;;;23.20;49.00;;;;;;4720949;30;20052;-81
2022/08/28 13:09:43;;;;;;;3.17;0.30;;;23.30;49.00;;;;;;4721079;30;20037;-79
2022/08/28 13:12:26;;;;;;;1.30;0.30;;;23.50;48.60;;;;;;4729454;30;20055;-78
2022/08/28 13:15:54;;;;;;;0.55;0.20;;;23.70;48.30;;;;;;4713096;30;20123;-77
2022/08/28 13:18:36;;;;;;;1.52;0.50;;;23.90;48.20;;;;;;4715606;30;20052;-77
2022/08/28 13:21:36;;;;;;;1.23;0.25;;;23.90;48.00;;;;;;4727379;30;20049;-79
2022/08/28 13:24:24;;;;;;;1.58;0.30;;;23.80;48.10;;;;;;4715811;30;20048;-80
2022/08/28 13:27:13;;;;;;;0.65;0.20;;;23.70;48.10;;;;;;4722029;30;20064;-79
2022/08/28 13:29:59;;;;;;;0.88;0.35;;;23.70;48.20;;;;;;4701675;30;20059;-78